aviador You're here:

MMTJ Decoded Metar

TIJUANA in MEXICO
Report Time2017-12-18 07:47:00
UTC Time2017-12-18 08:51:41
Flight Rules vfr VFR
Wind100° at 04 kt
W.Decomp.*RWY 09: 4.0 kt HW 0.2 kt LCW
W.Rank100° ranks 13
Current wind is below 100° avg. (5.0)
Visibility9999 m
Phenomena:N/A
Clouds:N/A
Expected CloudBase > 8,000 ft AGL from Temp-Dew spread
CeilingNone
Temp13°C (ISA -1)
Dew Point-7°C (24% RH)
AAT8.7°C
QNH1018 hPa
Density Alt266 ft
Elevation499 ft
Report Wrong Elevation
Raw Report
MMTJ 180747Z 10004KT 8SM SKC 13/M07 A3007=

Extra information for MMTJ:More info

Metar Taf Metar & Taf Last 4 Metars F.Rules Stats Wind Profile Meteogram Temp Stats Airport Information Weather charts Add Link Nearby VenuesMetar ALERT Operation Metar Decoded Social comments